Terminal Aerodrome Forecast
Issued by NWS Sterling, VA

Home | Current Version | Previous Version | Text Only | Print | Product List | Glossary On
Versions: 1 2 3 4 5 6 7 8 9 10 11 12 13 14 15 16 17 18 19
000
FTUS41 KLWX 301700 RRA
TAFCHO
TAF
KCHO 301743Z 3018/0118 VRB03KT 3SM BR OVC008
     FM302000 00000KT P6SM BKN040
     FM010600 00000KT 1/2SM FG OVC008
     FM011200 00000KT 3SM BR OVC015=

USA.gov is the U.S. government's official web portal to all federal, state and local government web resources and services.